Time;durP1;ratioP1;P1;durP2;ratioP2;P2;SDS_P1;SDS_P2;PMS_P1;PMS_P2;Temp;Humidity;BMP_temperature;BMP_pressure;BME280_temperature;BME280_humidity;BME280_pressure;Samples;Min_cycle;Max_cycle;Signal;HPM_P1;HPM_P2
2021/10/14 00:01:40;;;;;;;2.92;2.42;;;;;;;9.86;58.29;100449.97;4471186;32;33368;-50
2021/10/14 00:04:08;;;;;;;5.28;2.90;;;;;;;10.06;57.75;100449.34;4485254;32;33773;-47
2021/10/14 00:06:35;;;;;;;4.00;2.72;;;;;;;9.81;58.40;100454.22;4470896;32;35600;-47
2021/10/14 00:09:03;;;;;;;3.42;2.58;;;;;;;10.00;57.96;100446.69;4485145;32;35169;-47
2021/10/14 00:11:31;;;;;;;2.92;2.55;;;;;;;9.84;58.08;100444.72;4485101;32;34252;-47
2021/10/14 00:13:58;;;;;;;3.75;2.67;;;;;;;9.92;57.95;100448.31;4485082;32;33816;-49
2021/10/14 00:16:26;;;;;;;3.62;2.55;;;;;;;9.82;58.32;100453.34;4484880;32;35819;-48
2021/10/14 00:18:53;;;;;;;3.65;2.75;;;;;;;9.82;58.37;100455.94;4471023;32;34859;-47
2021/10/14 00:21:21;;;;;;;3.62;2.80;;;;;;;9.70;58.45;100456.66;4470890;32;33261;-47
2021/10/14 00:23:48;;;;;;;2.97;2.47;;;;;;;9.93;58.14;100463.06;4485002;32;34748;-47
2021/10/14 00:26:16;;;;;;;4.18;2.85;;;;;;;9.65;58.85;100460.91;4484976;32;35065;-47
2021/10/14 00:28:43;;;;;;;3.00;2.08;;;;;;;9.74;58.66;100455.88;4485067;32;34383;-47
2021/10/14 00:31:10;;;;;;;3.10;2.40;;;;;;;9.60;58.92;100460.00;4485089;32;33190;-47
2021/10/14 00:33:38;;;;;;;4.45;2.90;;;;;;;9.71;58.57;100462.75;4485253;32;33798;-49
2021/10/14 00:36:06;;;;;;;4.57;2.90;;;;;;;9.78;58.44;100470.66;4484973;32;34818;-47
2021/10/14 00:38:33;;;;;;;3.60;2.55;;;;;;;9.77;58.33;100470.63;4470823;32;34435;-47
2021/10/14 00:41:01;;;;;;;3.80;2.87;;;;;;;9.85;58.27;100469.00;4484945;32;34272;-47
2021/10/14 00:43:28;;;;;;;3.75;2.67;;;;;;;9.92;58.31;100466.50;4484944;32;34639;-47
2021/10/14 00:45:55;;;;;;;3.42;2.92;;;;;;;9.84;58.30;100467.28;4484840;32;35253;-47
2021/10/14 00:48:23;;;;;;;4.78;2.87;;;;;;;9.84;58.18;100472.47;4484880;32;34815;-48
2021/10/14 00:50:51;;;;;;;3.67;2.40;;;;;;;9.79;58.31;100463.72;4484970;32;34203;-47
2021/10/14 00:53:18;;;;;;;3.33;2.58;;;;;;;9.92;58.01;100460.41;4470660;32;33831;-47
2021/10/14 00:55:46;;;;;;;5.87;2.70;;;;;;;9.50;59.12;100455.53;4470815;32;35744;-47
2021/10/14 00:58:14;;;;;;;3.20;2.62;;;;;;;9.65;58.75;100463.53;4484984;32;35155;-50
2021/10/14 01:00:41;;;;;;;3.50;2.83;;;;;;;9.78;58.64;100462.84;4483902;32;34079;-48
2021/10/14 01:03:09;;;;;;;4.30;2.92;;;;;;;9.73;58.73;100459.31;4470511;32;33366;-47
2021/10/14 01:05:37;;;;;;;4.22;3.03;;;;;;;9.51;59.29;100455.53;4484516;32;34842;-48
2021/10/14 01:08:05;;;;;;;4.85;2.80;;;;;;;9.70;59.00;100458.41;4484777;32;34266;-50
2021/10/14 01:10:32;;;;;;;4.00;2.92;;;;;;;9.80;58.85;100457.66;4484762;32;33627;-47
2021/10/14 01:13:01;;;;;;;4.85;2.50;;;;;;;9.94;58.43;100464.78;4470558;32;33869;-47
2021/10/14 01:15:28;;;;;;;3.60;2.87;;;;;;;9.84;58.61;100457.72;4484800;32;34713;-50
2021/10/14 01:17:56;;;;;;;3.65;2.75;;;;;;;9.94;58.48;100467.37;4484610;32;35714;-47
2021/10/14 01:20:24;;;;;;;4.10;2.97;;;;;;;9.95;58.45;100461.34;4484755;32;33377;-49
2021/10/14 01:22:52;;;;;;;3.67;2.50;;;;;;;10.10;57.83;100471.91;4484913;32;34864;-48
2021/10/14 01:25:20;;;;;;;3.53;2.60;;;;;;;10.09;57.81;100459.78;4470555;32;34606;-51
2021/10/14 01:27:49;;;;;;;3.25;2.50;;;;;;;10.25;57.15;100462.59;4484814;32;35035;-48
2021/10/14 01:30:17;;;;;;;3.37;2.67;;;;;;;10.32;57.08;100470.47;4484624;32;34016;-49
2021/10/14 01:32:47;;;;;;;3.85;2.40;;;;;;;10.20;57.49;100467.72;4484620;32;34318;-47
2021/10/14 02:47:06;;;;;;;5.28;3.50;;;;;;;10.04;60.00;100492.66;4655462;26;20149;-48
2021/10/14 02:49:33;;;;;;;5.07;3.20;;;;;;;10.07;59.76;100497.91;4421643;32;34363;-49
2021/10/14 02:52:01;;;;;;;4.87;3.58;;;;;;;10.11;59.77;100493.59;4408234;32;33297;-48
2021/10/14 02:54:29;;;;;;;4.50;3.50;;;;;;;10.12;59.47;100498.88;4407958;32;34862;-48
2021/10/14 02:56:56;;;;;;;5.87;3.40;;;;;;;10.27;59.08;100498.16;4407835;32;34651;-51
2021/10/14 02:59:24;;;;;;;5.25;3.62;;;;;;;10.16;59.54;100490.25;4421566;32;34275;-48
2021/10/14 03:01:52;;;;;;;5.32;4.18;;;;;;;9.99;59.93;100491.72;4421318;32;33186;-51
2021/10/14 03:04:21;;;;;;;4.10;3.30;;;;;;;10.13;59.64;100487.59;4407445;32;34292;-47
2021/10/14 03:06:48;;;;;;;5.80;4.00;;;;;;;10.16;59.51;100492.84;4421588;32;35685;-49
2021/10/14 03:09:16;;;;;;;4.47;3.53;;;;;;;10.09;59.71;100493.59;4421429;32;35205;-48
2021/10/14 03:11:43;;;;;;;6.80;3.70;;;;;;;10.12;59.61;100493.66;4421463;32;33293;-48
2021/10/14 03:14:11;;;;;;;5.82;4.15;;;;;;;9.95;60.13;100497.72;4421295;32;33924;-49
2021/10/14 03:16:38;;;;;;;4.50;4.05;;;;;;;10.10;59.77;100497.91;4421302;32;34853;-47
2021/10/14 03:19:06;;;;;;;4.90;3.53;;;;;;;9.96;59.91;100496.84;4421039;32;35130;-51
2021/10/14 03:21:34;;;;;;;4.10;3.70;;;;;;;9.99;59.75;100501.22;4421362;32;34339;-48
2021/10/14 03:24:01;;;;;;;4.45;3.22;;;;;;;10.03;59.52;100503.88;4422978;32;34496;-48
2021/10/14 03:26:29;;;;;;;6.03;3.75;;;;;;;10.14;59.29;100515.34;4423305;32;34720;-49
2021/10/14 03:28:56;;;;;;;5.05;3.60;;;;;;;9.95;59.59;100513.31;4423175;32;35191;-48
2021/10/14 03:31:24;;;;;;;3.80;3.30;;;;;;;10.08;59.34;100520.41;4423322;32;33832;-48
2021/10/14 03:33:51;;;;;;;5.37;3.53;;;;;;;10.02;59.43;100520.34;4423283;32;33974;-47
2021/10/14 03:36:19;;;;;;;5.18;3.70;;;;;;;10.07;59.33;100517.81;4423287;32;35110;-47
2021/10/14 03:38:46;;;;;;;4.93;3.17;;;;;;;9.94;59.71;100529.75;4423110;32;34013;-48
2021/10/14 03:41:14;;;;;;;5.30;3.35;;;;;;;9.97;59.17;100524.59;4423364;32;33350;-48
2021/10/14 03:43:41;;;;;;;5.37;3.72;;;;;;;9.93;59.09;100519.34;4423306;32;34733;-49
2021/10/14 03:46:09;;;;;;;5.53;3.42;;;;;;;9.95;58.99;100522.84;4423157;32;34933;-48
2021/10/14 03:48:36;;;;;;;4.57;3.22;;;;;;;9.87;59.14;100532.22;4423023;32;35180;-47
2021/10/14 03:51:04;;;;;;;4.30;3.40;;;;;;;10.00;59.01;100522.06;4409169;32;33893;-50
2021/10/14 03:53:32;;;;;;;5.05;3.97;;;;;;;9.81;59.21;100520.06;4409349;32;33839;-47
2021/10/14 03:55:59;;;;;;;4.22;3.20;;;;;;;9.58;59.97;100516.22;4423253;32;35765;-51
2021/10/14 03:58:27;;;;;;;5.07;3.60;;;;;;;9.77;59.55;100513.03;4423118;32;34197;-48
2021/10/14 04:00:54;;;;;;;4.22;3.60;;;;;;;9.79;59.35;100507.91;4423269;32;34209;-47
2021/10/14 04:03:23;;;;;;;5.03;3.30;;;;;;;9.89;59.23;100512.38;4423071;32;33886;-48
2021/10/14 04:05:50;;;;;;;6.20;3.33;;;;;;;9.99;58.86;100509.91;4423125;32;34886;-47
2021/10/14 04:08:17;;;;;;;4.30;3.65;;;;;;;10.01;58.65;100510.78;4423146;32;34372;-48
2021/10/14 04:10:45;;;;;;;5.15;3.30;;;;;;;9.82;59.18;100520.91;4422995;32;33188;-47
2021/10/14 04:13:12;;;;;;;4.10;3.50;;;;;;;10.00;58.72;100510.78;4422996;32;34037;-47
2021/10/14 04:15:41;;;;;;;4.37;3.53;;;;;;;9.88;58.90;100505.41;4422978;32;34883;-48
2021/10/14 04:18:08;;;;;;;4.57;3.50;;;;;;;9.79;59.29;100516.56;4422889;32;34397;-48
2021/10/14 04:20:36;;;;;;;5.82;3.53;;;;;;;9.91;59.03;100510.66;4422949;32;33751;-52
2021/10/14 04:23:03;;;;;;;3.55;3.05;;;;;;;9.94;58.92;100505.50;4422969;32;33792;-47
2021/10/14 04:25:31;;;;;;;6.93;3.72;;;;;;;9.83;58.89;100513.16;4422952;32;35652;-47
2021/10/14 04:27:58;;;;;;;5.00;3.70;;;;;;;9.90;58.77;100511.50;4422847;32;34217;-48
2021/10/14 04:30:25;;;;;;;4.18;3.53;;;;;;;9.78;58.97;100525.19;4422970;32;33311;-47
2021/10/14 04:32:53;;;;;;;4.45;3.70;;;;;;;9.81;58.79;100524.38;4422826;32;33735;-49
2021/10/14 04:35:22;;;;;;;5.72;3.53;;;;;;;9.92;58.68;100522.78;4421937;32;35830;-48
2021/10/14 04:37:49;;;;;;;5.03;3.70;;;;;;;9.66;59.03;100525.00;4422783;32;34248;-48
2021/10/14 04:40:17;;;;;;;5.75;4.22;;;;;;;9.63;59.51;100530.16;4423138;32;34164;-48
2021/10/14 04:42:44;;;;;;;5.95;4.12;;;;;;;9.61;59.46;100520.59;4422776;32;34729;-48
2021/10/14 04:45:12;;;;;;;4.10;3.70;;;;;;;9.33;60.25;100524.50;4422840;32;34917;-50
2021/10/14 04:47:40;;;;;;;4.43;3.50;;;;;;;9.42;59.79;100527.22;4422546;32;35055;-48
2021/10/14 04:50:08;;;;;;;5.70;3.45;;;;;;;9.37;60.21;100531.47;4422846;32;33448;-48
2021/10/14 04:52:36;;;;;;;4.07;3.67;;;;;;;9.59;59.72;100533.56;4422767;32;33834;-47
2021/10/14 04:55:05;;;;;;;3.78;3.12;;;;;;;9.43;59.94;100537.66;4422776;32;35823;-53
2021/10/14 04:57:33;;;;;;;5.18;3.65;;;;;;;9.63;59.56;100550.94;4422692;32;34279;-48
2021/10/14 05:00:01;;;;;;;4.78;3.80;;;;;;;9.67;59.43;100544.97;4422968;32;33264;-49
2021/10/14 05:02:29;;;;;;;4.40;3.53;;;;;;;9.59;59.63;100549.16;4422789;32;34634;-48
2021/10/14 05:04:57;;;;;;;4.28;3.72;;;;;;;9.61;59.60;100551.75;4422969;32;34743;-49
2021/10/14 05:07:24;;;;;;;5.50;3.60;;;;;;;9.67;59.52;100560.53;4422909;32;35320;-47
2021/10/14 05:09:52;;;;;;;6.10;4.10;;;;;;;9.56;59.87;100556.88;4422872;32;33787;-47
2021/10/14 05:12:20;;;;;;;5.30;3.95;;;;;;;9.76;59.24;100558.06;4422727;32;35090;-47
2021/10/14 05:14:48;;;;;;;6.10;4.72;;;;;;;9.89;59.13;100561.75;4422719;32;35705;-47
2021/10/14 05:17:15;;;;;;;5.50;4.10;;;;;;;9.81;59.19;100566.81;4422656;32;35095;-48
2021/10/14 05:19:43;;;;;;;6.87;4.72;;;;;;;9.93;59.03;100567.00;4422700;32;34065;-47
2021/10/14 05:22:10;;;;;;;5.87;4.03;;;;;;;10.01;58.77;100565.38;4422575;32;33723;-49
2021/10/14 05:24:38;;;;;;;6.43;4.07;;;;;;;10.02;58.58;100567.13;4422660;32;34834;-48
2021/10/14 05:27:05;;;;;;;5.50;4.10;;;;;;;10.11;58.39;100575.06;4422525;32;34310;-48
2021/10/14 05:29:33;;;;;;;4.97;3.70;;;;;;;10.05;58.59;100577.56;4422706;32;33271;-48
2021/10/14 05:32:00;;;;;;;6.57;4.57;;;;;;;9.83;59.07;100579.81;4422626;32;34740;-48
2021/10/14 05:34:28;;;;;;;5.82;4.20;;;;;;;9.80;59.25;100583.25;4422897;32;34988;-48
2021/10/14 05:36:55;;;;;;;6.10;4.85;;;;;;;9.91;59.11;100589.47;4422526;32;34461;-48
2021/10/14 05:39:23;;;;;;;6.65;4.05;;;;;;;10.04;58.80;100591.41;4422535;32;33381;-47
2021/10/14 05:41:51;;;;;;;8.27;4.43;;;;;;;10.15;58.40;100589.84;4422636;32;34525;-51
2021/10/14 05:44:18;;;;;;;8.25;4.50;;;;;;;10.14;58.59;100603.72;4422376;32;35795;-49
2021/10/14 05:46:46;;;;;;;5.28;4.03;;;;;;;10.04;58.50;100603.53;4421624;32;34440;-48
2021/10/14 05:49:13;;;;;;;8.70;4.43;;;;;;;9.98;58.85;100617.28;4422294;32;33214;-49
2021/10/14 05:51:40;;;;;;;5.70;4.22;;;;;;;9.96;59.02;100611.19;4408717;32;33823;-48
2021/10/14 05:54:08;;;;;;;7.97;4.45;;;;;;;10.02;59.00;100608.72;4422217;32;34649;-48
2021/10/14 05:56:36;;;;;;;4.93;4.10;;;;;;;9.78;59.15;100610.94;4422256;32;34384;-49
2021/10/14 05:59:03;;;;;;;6.32;4.03;;;;;;;10.13;58.41;100625.34;4422353;32;34030;-48
2021/10/14 06:01:31;;;;;;;5.62;4.60;;;;;;;10.04;58.61;100627.78;4422272;32;34668;-49
2021/10/14 06:03:58;;;;;;;6.18;4.70;;;;;;;10.20;58.38;100628.91;4422585;32;35518;-47
2021/10/14 06:06:26;;;;;;;6.05;4.62;;;;;;;10.18;58.50;100628.91;4408443;32;34570;-53
2021/10/14 06:08:53;;;;;;;6.72;4.12;;;;;;;9.99;59.05;100629.44;4422468;32;33386;-48
2021/10/14 06:11:21;;;;;;;4.87;4.10;;;;;;;10.09;59.07;100627.84;4408515;32;33872;-46
2021/10/14 06:13:48;;;;;;;5.50;4.18;;;;;;;9.89;59.56;100626.69;4422100;32;35783;-48
2021/10/14 06:16:16;;;;;;;6.62;4.28;;;;;;;10.27;58.42;100632.50;4421854;32;34302;-48
2021/10/14 06:18:44;;;;;;;5.20;3.97;;;;;;;10.33;58.26;100635.16;4422228;32;33412;-52
2021/10/14 06:21:11;;;;;;;5.25;4.07;;;;;;;10.34;58.13;100648.19;4422053;32;34823;-48
2021/10/14 06:23:38;;;;;;;5.50;4.00;;;;;;;10.31;58.16;100642.97;4421985;32;34708;-48
2021/10/14 06:26:06;;;;;;;9.82;4.22;;;;;;;10.11;58.94;100646.94;4421631;32;35177;-49
2021/10/14 06:28:34;;;;;;;7.55;4.78;;;;;;;10.16;58.58;100643.59;4421873;32;33379;-49
2021/10/14 06:31:01;;;;;;;7.00;5.10;;;;;;;10.25;58.42;100652.38;4383630;32;33774;-48
2021/10/14 06:33:29;;;;;;;7.65;4.32;;;;;;;10.25;58.79;100648.06;4421995;32;34860;-48
2021/10/14 06:35:57;;;;;;;6.10;4.72;;;;;;;10.42;58.06;100648.28;4421766;32;34766;-48
2021/10/14 06:38:24;;;;;;;7.62;4.62;;;;;;;10.59;57.41;100655.47;4421565;32;34330;-51
2021/10/14 06:40:52;;;;;;;7.68;4.82;;;;;;;10.57;57.64;100651.09;4421143;32;34048;-46
2021/10/14 06:43:19;;;;;;;8.57;4.70;;;;;;;10.51;57.92;100664.00;4421124;32;35977;-51
2021/10/14 06:45:47;;;;;;;5.68;4.80;;;;;;;10.30;58.54;100666.31;4421642;32;34563;-49
2021/10/14 06:48:14;;;;;;;5.47;4.57;;;;;;;10.68;57.62;100659.91;4421524;32;33993;-47
2021/10/14 06:50:42;;;;;;;7.00;5.97;;;;;;;10.52;58.05;100668.38;4421868;32;34001;-49
2021/10/14 06:53:11;;;;;;;9.48;5.82;;;;;;;10.48;58.10;100666.59;4421593;32;35702;-48
2021/10/14 06:55:40;;;;;;;7.82;5.80;;;;;;;10.52;57.93;100663.19;4421584;32;34299;-48
2021/10/14 06:58:08;;;;;;;7.90;5.97;;;;;;;10.60;58.10;100666.78;4422489;32;33583;-50
2021/10/14 07:00:35;;;;;;;6.35;5.47;;;;;;;10.73;57.87;100658.25;4423411;32;34699;-47
2021/10/14 07:03:03;;;;;;;8.98;5.40;;;;;;;10.86;57.21;100654.97;4409506;32;33755;-48
2021/10/14 07:05:31;;;;;;;6.07;5.03;;;;;;;10.79;57.40;100663.56;4409514;32;33845;-47
2021/10/14 07:07:58;;;;;;;6.10;4.78;;;;;;;10.85;57.17;100668.81;4423255;32;33911;-47
2021/10/14 07:10:26;;;;;;;7.95;6.75;;;;;;;10.82;57.22;100658.34;4423325;32;33894;-48
2021/10/14 07:12:54;;;;;;;10.10;6.97;;;;;;;10.86;57.11;100670.56;4423331;32;35079;-47
2021/10/14 07:15:21;;;;;;;8.93;7.65;;;;;;;10.98;56.89;100669.84;4423198;32;34400;-47
2021/10/14 07:17:49;;;;;;;11.05;7.95;;;;;;;10.86;57.01;100675.78;4423342;32;33319;-48
2021/10/14 07:20:16;;;;;;;10.73;9.02;;;;;;;11.12;56.12;100674.37;4409304;32;33756;-46
2021/10/14 07:22:44;;;;;;;10.25;7.30;;;;;;;11.06;56.55;100676.00;4423345;32;34822;-48
2021/10/14 07:25:12;;;;;;;8.82;6.50;;;;;;;11.19;55.77;100673.56;4423073;32;34405;-47
2021/10/14 07:27:39;;;;;;;7.43;5.30;;;;;;;11.23;55.90;100669.25;4423351;32;33234;-48
2021/10/14 07:30:07;;;;;;;6.40;5.53;;;;;;;11.19;56.03;100684.00;4423331;32;33788;-47
2021/10/14 07:32:37;;;;;;;5.65;4.97;;;;;;;11.20;55.70;100688.31;4409927;32;35047;-48
2021/10/14 07:35:05;;;;;;;8.13;5.37;;;;;;;11.19;55.96;100697.00;4409314;32;34737;-47
2021/10/14 07:37:33;;;;;;;11.12;7.30;;;;;;;11.26;55.98;100695.34;4423190;32;33538;-48
2021/10/14 07:40:01;;;;;;;9.35;6.90;;;;;;;11.16;55.50;100690.87;4409834;32;34580;-47
2021/10/14 07:42:33;;;;;;;;;;;;;;;11.06;55.97;100689.00;4423481;32;36060;-48
2021/10/14 07:45:00;;;;;;;8.75;5.57;;;;;;;10.86;56.86;100696.59;4423337;32;34499;-49
2021/10/14 07:47:28;;;;;;;9.35;5.28;;;;;;;11.01;56.59;100694.16;4408971;32;33072;-49
2021/10/14 07:49:55;;;;;;;7.70;5.80;;;;;;;11.00;56.86;100700.25;4423381;32;34043;-51
2021/10/14 07:52:23;;;;;;;7.47;4.90;;;;;;;11.22;56.50;100707.44;4423168;32;34735;-47
2021/10/14 07:54:50;;;;;;;6.35;5.20;;;;;;;11.11;56.50;100701.25;4422858;32;35146;-49
2021/10/14 07:57:18;;;;;;;5.85;5.07;;;;;;;11.25;56.15;100698.78;4422856;32;33530;-48
2021/10/14 07:59:45;;;;;;;8.13;5.35;;;;;;;11.31;56.45;100694.53;4423186;32;33747;-47
2021/10/14 08:02:13;;;;;;;6.60;5.55;;;;;;;11.41;56.40;100700.72;4408910;32;34206;-51
2021/10/14 08:04:42;;;;;;;6.47;4.93;;;;;;;11.39;56.22;100700.69;4422962;32;35176;-47
2021/10/14 08:07:09;;;;;;;8.27;6.30;;;;;;;11.52;56.08;100697.38;4409025;32;32987;-47
2021/10/14 08:09:36;;;;;;;12.68;8.13;;;;;;;11.71;54.66;100708.00;4408878;32;34672;-47
2021/10/14 08:12:04;;;;;;;8.20;5.72;;;;;;;11.63;55.63;100702.66;4422783;32;35818;-49
2021/10/14 08:14:32;;;;;;;8.18;5.80;;;;;;;11.74;55.03;100706.31;4422923;32;35146;-48
2021/10/14 08:16:59;;;;;;;7.35;5.78;;;;;;;11.95;54.81;100703.00;4422872;32;33318;-47
2021/10/14 08:19:27;;;;;;;11.07;5.45;;;;;;;12.01;54.36;100708.25;4422787;32;34495;-50
2021/10/14 08:21:54;;;;;;;10.65;5.30;;;;;;;12.03;54.39;100690.87;4422612;32;35290;-47
2021/10/14 08:24:22;;;;;;;6.55;5.15;;;;;;;11.98;54.67;100698.69;4422791;32;34369;-48
2021/10/14 08:26:49;;;;;;;6.45;5.10;;;;;;;12.21;53.45;100702.38;4422751;32;33639;-48
2021/10/14 08:29:17;;;;;;;7.37;5.12;;;;;;;12.34;53.23;100698.09;4423109;32;34655;-47
2021/10/14 08:31:44;;;;;;;7.43;4.82;;;;;;;12.20;53.58;100695.38;4422757;32;34649;-48
2021/10/14 08:34:12;;;;;;;8.80;5.30;;;;;;;12.13;53.55;100697.94;4396560;32;33667;-48
2021/10/14 08:36:42;;;;;;;6.03;5.10;;;;;;;12.33;52.39;100696.34;4422512;32;34247;-47
2021/10/14 08:39:10;;;;;;;8.40;5.65;;;;;;;12.41;52.62;100699.88;4422882;32;33915;-47
2021/10/14 08:41:39;;;;;;;5.90;4.68;;;;;;;12.23;53.48;100702.34;4422445;32;34834;-48
2021/10/14 08:44:07;;;;;;;6.37;4.93;;;;;;;12.47;52.83;100699.03;4422721;32;34282;-47
2021/10/14 08:46:34;;;;;;;6.65;5.00;;;;;;;12.49;52.44;100703.41;4408586;32;33379;-49
2021/10/14 08:49:02;;;;;;;7.05;5.12;;;;;;;12.34;53.23;100705.91;4422765;32;33967;-48
2021/10/14 08:51:29;;;;;;;6.30;4.65;;;;;;;12.69;52.31;100695.72;4422659;32;34782;-49
2021/10/14 08:53:57;;;;;;;6.95;5.03;;;;;;;12.98;51.49;100701.06;4422587;32;34155;-47
2021/10/14 08:56:24;;;;;;;6.35;4.85;;;;;;;13.05;51.50;100702.84;4422479;32;34138;-47
2021/10/14 08:58:52;;;;;;;7.22;4.97;;;;;;;13.01;50.75;100699.34;4422595;32;33833;-49
2021/10/14 09:01:20;;;;;;;7.50;4.78;;;;;;;13.08;49.93;100695.03;4408568;32;34726;-47
2021/10/14 09:03:49;;;;;;;5.62;4.60;;;;;;;13.16;49.86;100691.59;4422321;32;35057;-47
2021/10/14 09:06:18;;;;;;;5.62;4.28;;;;;;;13.19;49.89;100693.34;4422297;32;34277;-47
2021/10/14 09:08:48;;;;;;;5.50;4.65;;;;;;;13.20;49.97;100697.69;4422629;32;34414;-48
2021/10/14 09:11:16;;;;;;;7.32;4.78;;;;;;;13.27;49.52;100696.84;4422550;32;34777;-47
2021/10/14 09:13:55;;;;;;;7.45;4.97;;;;;;;13.35;49.96;100702.97;4422269;32;34426;-47
2021/10/14 09:16:33;;;;;;;6.47;4.82;;;;;;;13.01;49.98;100703.66;4422362;32;33583;-47
2021/10/14 09:19:16;;;;;;;7.60;5.00;;;;;;;13.51;49.08;100699.53;4408662;32;34690;-48
2021/10/14 09:21:58;;;;;;;6.80;4.40;;;;;;;13.44;49.60;100709.09;4421542;32;35712;-50
2021/10/14 09:24:39;;;;;;;7.57;4.07;;;;;;;13.66;48.84;100702.19;4422245;32;34455;-47
2021/10/14 09:27:09;;;;;;;4.27;3.80;;;;;;;14.02;46.82;100696.09;4408398;32;33307;-48
2021/10/14 09:29:38;;;;;;;6.47;4.32;;;;;;;14.30;45.54;100699.56;4422354;32;34694;-51
2021/10/14 09:32:07;;;;;;;4.90;3.97;;;;;;;14.10;46.37;100699.56;4422516;32;35712;-47
2021/10/14 09:34:37;;;;;;;5.70;3.60;;;;;;;14.06;47.35;100703.94;4422543;32;34972;-47
2021/10/14 09:37:24;;;;;;;5.78;3.62;;;;;;;14.15;47.13;100709.16;4422246;32;33523;-48
2021/10/14 09:40:14;;;;;;;5.12;3.45;;;;;;;14.34;45.23;100714.41;4421739;32;33848;-48
2021/10/14 09:43:01;;;;;;;4.65;3.50;;;;;;;14.48;44.05;100712.66;4421752;32;34989;-50
2021/10/14 09:45:31;;;;;;;5.95;4.00;;;;;;;14.37;44.08;100715.31;4421868;32;35101;-50
2021/10/14 09:48:04;;;;;;;5.47;3.90;;;;;;;14.31;44.44;100714.44;4421900;32;34449;-50
2021/10/14 09:50:36;;;;;;;6.53;3.55;;;;;;;14.40;44.06;100717.91;4421925;32;33931;-48
2021/10/14 09:53:07;;;;;;;6.93;4.13;;;;;;;14.56;43.54;100716.13;4421815;32;34795;-48
2021/10/14 09:55:34;;;;;;;5.45;3.72;;;;;;;14.67;42.74;100710.00;4421857;32;34435;-47
2021/10/14 09:58:02;;;;;;;6.07;3.67;;;;;;;14.49;43.63;100711.78;4421895;32;33509;-49
2021/10/14 10:00:30;;;;;;;6.30;3.83;;;;;;;14.46;44.07;100714.41;4421747;32;33766;-47
2021/10/14 10:03:00;;;;;;;5.43;4.18;;;;;;;14.52;43.46;100714.41;4421839;32;36163;-48
2021/10/14 10:05:29;;;;;;;7.40;4.20;;;;;;;14.46;43.66;100709.16;4421579;32;34498;-49
2021/10/14 10:07:59;;;;;;;5.47;4.00;;;;;;;14.46;43.76;100719.63;4407880;32;33533;-48
2021/10/14 10:10:28;;;;;;;5.43;4.28;;;;;;;14.47;43.30;100726.62;4407913;32;34718;-48
2021/10/14 10:12:57;;;;;;;5.50;4.00;;;;;;;14.48;43.05;100725.75;4395564;32;34942;-47
2021/10/14 10:15:42;;;;;;;5.10;3.90;;;;;;;14.53;42.73;100726.59;4407922;32;34559;-47
2021/10/14 10:18:42;;;;;;;6.95;4.07;;;;;;;14.70;42.34;100714.34;4421876;32;33818;-48
2021/10/14 10:21:33;;;;;;;5.45;4.05;;;;;;;14.63;43.03;100713.50;4374888;32;34605;-47
2021/10/14 10:24:03;;;;;;;7.40;4.40;;;;;;;14.55;43.33;100715.25;4421574;32;35766;-48
2021/10/14 10:26:36;;;;;;;5.25;4.12;;;;;;;14.40;43.90;100720.53;4421807;32;34443;-47
2021/10/14 10:29:12;;;;;;;5.25;3.90;;;;;;;14.58;43.04;100715.25;4421730;32;33339;-47
2021/10/14 10:31:46;;;;;;;5.07;3.97;;;;;;;14.81;42.62;100712.56;4408078;32;33951;-47
2021/10/14 10:40:16;;;;;;;5.55;4.43;;;;;;;14.68;43.52;100708.25;4421375;32;34130;-48
2021/10/14 10:42:45;;;;;;;5.70;4.70;;;;;;;14.84;42.88;100702.97;4421268;32;34006;-47
2021/10/14 10:45:23;;;;;;;5.47;4.30;;;;;;;14.84;42.55;100702.09;4421476;32;35644;-47
2021/10/14 10:47:54;;;;;;;5.72;4.43;;;;;;;14.81;42.69;100697.75;4421303;32;35291;-47
2021/10/14 10:50:42;;;;;;;5.45;4.43;;;;;;;15.04;43.11;100696.78;4415078;32;33441;-48
2021/10/14 10:53:12;;;;;;;6.12;4.75;;;;;;;15.17;42.34;100701.97;4421397;32;34057;-50
2021/10/14 10:55:42;;;;;;;23.58;11.10;;;;;;;14.99;43.18;100699.44;4421105;32;35013;-48
2021/10/14 10:58:13;;;;;;;36.60;17.73;;;;;;;14.90;42.92;100696.84;4421142;32;34423;-51
2021/10/14 11:00:43;;;;;;;12.10;7.53;;;;;;;14.93;43.77;100695.97;4407538;32;32782;-48
2021/10/14 11:03:19;;;;;;;9.70;5.70;;;;;;;15.05;42.94;100696.78;4420866;32;33624;-51
2021/10/14 11:05:55;;;;;;;7.28;4.82;;;;;;;14.89;42.64;100688.13;4407362;32;35817;-47
2021/10/14 11:08:25;;;;;;;14.23;8.98;;;;;;;15.11;42.50;100681.03;4421050;32;34585;-51
2021/10/14 11:10:58;;;;;;;50.33;26.90;;;;;;;15.09;42.55;100687.16;4421029;32;33567;-48
2021/10/14 11:13:29;;;;;;;29.70;16.15;;;;;;;15.00;43.46;100687.22;4420918;32;34120;-48
2021/10/14 11:16:10;;;;;;;68.85;35.75;;;;;;;15.02;41.77;100680.22;4420794;32;34922;-47
2021/10/14 11:18:40;;;;;;;31.73;18.60;;;;;;;14.99;42.71;100677.59;4420991;32;34574;-47
2021/10/14 11:21:29;;;;;;;23.17;12.68;;;;;;;15.05;42.79;100667.97;4420901;32;33639;-47
2021/10/14 11:23:59;;;;;;;12.60;7.53;;;;;;;15.19;42.55;100663.53;4420599;32;34627;-49
2021/10/14 11:26:39;;;;;;;6.68;4.90;;;;;;;15.39;42.05;100672.16;4420828;32;35013;-49
2021/10/14 11:29:18;;;;;;;9.45;4.60;;;;;;;15.65;40.75;100664.16;4421170;32;34369;-48
2021/10/14 11:31:54;;;;;;;5.43;3.75;;;;;;;15.54;41.38;100656.38;4407348;32;33354;-49
2021/10/14 11:34:24;;;;;;;6.80;3.92;;;;;;;15.58;40.82;100662.44;4414712;32;34579;-49
2021/10/14 11:36:53;;;;;;;5.18;4.00;;;;;;;15.64;39.28;100648.44;4420952;32;34838;-49
2021/10/14 11:39:25;;;;;;;8.38;5.78;;;;;;;15.50;40.25;100652.00;4420962;32;34504;-49
2021/10/14 11:42:09;;;;;;;5.97;4.30;;;;;;;15.50;40.25;100652.00;4420845;32;34338;-48
2021/10/14 11:44:47;;;;;;;6.03;4.50;;;;;;;15.17;40.72;100649.56;4422288;32;33967;-47
2021/10/14 11:47:17;;;;;;;6.53;5.05;;;;;;;15.30;41.12;100651.25;4422994;32;35215;-47
2021/10/14 11:49:45;;;;;;;6.57;4.12;;;;;;;15.41;40.68;100654.66;4409211;32;34283;-48
2021/10/14 11:52:14;;;;;;;6.15;4.57;;;;;;;15.41;40.77;100654.66;4409267;32;32914;-52
2021/10/14 11:54:42;;;;;;;5.35;4.47;;;;;;;15.45;40.42;100645.91;4409289;32;33897;-47
2021/10/14 11:57:09;;;;;;;5.87;3.45;;;;;;;15.45;39.62;100652.94;4423017;32;35768;-53
2021/10/14 11:59:38;;;;;;;6.62;4.18;;;;;;;15.50;39.33;100648.50;4420127;32;91398;-47
2021/10/14 12:02:13;;;;;;;4.37;3.70;;;;;;;15.40;39.78;100642.41;4409430;32;33353;-48
2021/10/14 12:04:44;;;;;;;3.90;3.50;;;;;;;15.65;39.55;100637.91;4422899;32;34876;-50
2021/10/14 12:07:25;;;;;;;5.65;3.60;;;;;;;15.70;39.54;100643.13;4422814;32;34510;-51
2021/10/14 12:09:54;;;;;;;6.35;3.22;;;;;;;15.78;38.96;100631.72;4408899;32;34369;-50
2021/10/14 12:12:27;;;;;;;4.50;3.28;;;;;;;15.82;38.99;100635.16;4416503;32;34228;-47
2021/10/14 12:15:15;;;;;;;3.85;3.35;;;;;;;15.55;39.11;100629.25;4422513;32;34603;-47
2021/10/14 12:17:46;;;;;;;3.35;2.60;;;;;;;15.66;38.75;100631.81;4422912;32;34857;-48
2021/10/14 12:20:20;;;;;;;4.15;3.45;;;;;;;15.59;38.48;100628.34;4408910;32;34288;-51
2021/10/14 12:22:53;;;;;;;6.30;3.20;;;;;;;15.41;38.47;100623.22;4409087;32;33477;-48
2021/10/14 12:25:36;;;;;;;5.05;2.30;;;;;;;15.74;38.27;100618.62;4422659;32;33993;-51
2021/10/14 12:28:05;;;;;;;3.17;2.00;;;;;;;15.62;36.86;100618.75;4422685;32;35778;-47
2021/10/14 12:30:38;;;;;;;2.87;2.40;;;;;;;15.47;36.46;100614.47;4422735;32;34389;-47
2021/10/14 12:33:11;;;;;;;3.12;2.20;;;;;;;15.37;36.20;100618.88;4423079;32;34307;-48
2021/10/14 12:35:56;;;;;;;2.55;2.25;;;;;;;15.42;36.59;100608.34;4422311;32;34392;-48
2021/10/14 12:38:33;;;;;;;4.10;2.47;;;;;;;15.40;36.57;100613.59;4422703;32;34691;-48
2021/10/14 12:41:01;;;;;;;3.95;2.60;;;;;;;15.37;36.12;100600.53;4409027;32;34322;-47
2021/10/14 12:43:46;;;;;;;3.20;2.75;;;;;;;15.34;37.56;100613.66;4422809;32;34450;-47
2021/10/14 12:51:50;;;;;;;4.20;3.35;;;;;;;15.17;38.17;100597.16;4422427;32;34731;-50
2021/10/14 12:54:19;;;;;;;3.62;2.85;;;;;;;15.22;37.95;100603.25;4408413;32;32683;-51
2021/10/14 12:56:48;;;;;;;4.20;3.12;;;;;;;15.19;38.24;100590.16;4421905;32;34513;-46
2021/10/14 12:59:20;;;;;;;4.05;2.83;;;;;;;14.96;38.77;100592.03;4422252;32;35695;-48
2021/10/14 13:01:49;;;;;;;3.67;2.58;;;;;;;14.88;38.82;100589.47;4422264;32;34374;-47